sensor_id;sensor_type;location;lat;lon;timestamp;P1;durP1;ratioP1;P2;durP2;ratioP2
76357;SDS011;65185;21.060;105.826;2023-11-19T00:00:11;65.30;;;38.97;;
76357;SDS011;65185;21.060;105.826;2023-11-19T00:02:39;70.28;;;38.63;;
76357;SDS011;65185;21.060;105.826;2023-11-19T00:05:07;67.95;;;39.33;;
76357;SDS011;65185;21.060;105.826;2023-11-19T00:07:37;63.88;;;35.88;;
76357;SDS011;65185;21.060;105.826;2023-11-19T00:10:08;63.85;;;36.40;;
76357;SDS011;65185;21.060;105.826;2023-11-19T00:12:39;66.95;;;39.95;;
76357;SDS011;65185;21.060;105.826;2023-11-19T00:15:07;66.25;;;37.97;;
76357;SDS011;65185;21.060;105.826;2023-11-19T00:17:46;68.45;;;38.97;;
76357;SDS011;65185;21.060;105.826;2023-11-19T00:20:16;66.47;;;36.28;;
76357;SDS011;65185;21.060;105.826;2023-11-19T00:22:44;59.75;;;35.97;;
76357;SDS011;65185;21.060;105.826;2023-11-19T00:25:20;68.35;;;40.80;;
76357;SDS011;65185;21.060;105.826;2023-11-19T00:27:47;60.47;;;36.58;;
76357;SDS011;65185;21.060;105.826;2023-11-19T00:30:16;60.50;;;36.63;;
76357;SDS011;65185;21.060;105.826;2023-11-19T00:32:42;62.90;;;36.05;;
76357;SDS011;65185;21.060;105.826;2023-11-19T00:35:10;56.38;;;34.95;;
76357;SDS011;65185;21.060;105.826;2023-11-19T00:37:39;62.45;;;36.92;;
76357;SDS011;65185;21.060;105.826;2023-11-19T00:40:08;69.82;;;38.65;;
76357;SDS011;65185;21.060;105.826;2023-11-19T00:42:36;60.83;;;36.45;;
76357;SDS011;65185;21.060;105.826;2023-11-19T00:45:02;64.38;;;37.30;;
76357;SDS011;65185;21.060;105.826;2023-11-19T00:47:33;61.35;;;36.97;;
76357;SDS011;65185;21.060;105.826;2023-11-19T00:50:01;60.15;;;35.78;;
76357;SDS011;65185;21.060;105.826;2023-11-19T00:52:28;58.00;;;34.33;;
76357;SDS011;65185;21.060;105.826;2023-11-19T00:54:55;63.80;;;37.05;;
76357;SDS011;65185;21.060;105.826;2023-11-19T00:57:22;64.50;;;36.67;;
76357;SDS011;65185;21.060;105.826;2023-11-19T00:59:49;63.10;;;37.80;;
76357;SDS011;65185;21.060;105.826;2023-11-19T01:02:16;73.85;;;39.97;;
76357;SDS011;65185;21.060;105.826;2023-11-19T01:04:43;67.38;;;38.15;;
76357;SDS011;65185;21.060;105.826;2023-11-19T01:07:10;63.92;;;40.90;;
76357;SDS011;65185;21.060;105.826;2023-11-19T01:09:38;68.97;;;43.10;;
76357;SDS011;65185;21.060;105.826;2023-11-19T01:12:07;66.68;;;42.42;;
76357;SDS011;65185;21.060;105.826;2023-11-19T01:14:38;72.55;;;43.63;;
76357;SDS011;65185;21.060;105.826;2023-11-19T01:17:05;95.97;;;57.38;;
76357;SDS011;65185;21.060;105.826;2023-11-19T01:19:31;86.68;;;53.90;;
76357;SDS011;65185;21.060;105.826;2023-11-19T01:21:58;83.10;;;50.45;;
76357;SDS011;65185;21.060;105.826;2023-11-19T01:24:25;95.53;;;58.28;;
76357;SDS011;65185;21.060;105.826;2023-11-19T01:26:54;82.43;;;53.92;;
76357;SDS011;65185;21.060;105.826;2023-11-19T01:29:20;92.78;;;55.58;;
76357;SDS011;65185;21.060;105.826;2023-11-19T01:31:47;93.93;;;58.75;;
76357;SDS011;65185;21.060;105.826;2023-11-19T01:34:16;85.38;;;53.05;;
76357;SDS011;65185;21.060;105.826;2023-11-19T01:36:43;85.80;;;54.75;;
76357;SDS011;65185;21.060;105.826;2023-11-19T01:39:11;87.35;;;55.15;;
76357;SDS011;65185;21.060;105.826;2023-11-19T01:41:41;81.28;;;50.13;;
76357;SDS011;65185;21.060;105.826;2023-11-19T01:44:08;87.63;;;52.13;;
76357;SDS011;65185;21.060;105.826;2023-11-19T01:46:37;87.15;;;50.60;;
76357;SDS011;65185;21.060;105.826;2023-11-19T01:49:06;78.40;;;45.92;;
76357;SDS011;65185;21.060;105.826;2023-11-19T01:51:34;70.68;;;44.13;;
76357;SDS011;65185;21.060;105.826;2023-11-19T01:54:01;79.53;;;45.22;;
76357;SDS011;65185;21.060;105.826;2023-11-19T01:56:28;77.35;;;46.53;;
76357;SDS011;65185;21.060;105.826;2023-11-19T01:58:56;79.32;;;44.35;;
76357;SDS011;65185;21.060;105.826;2023-11-19T02:01:23;72.47;;;43.35;;
76357;SDS011;65185;21.060;105.826;2023-11-19T02:03:51;73.15;;;43.97;;
76357;SDS011;65185;21.060;105.826;2023-11-19T02:06:18;71.10;;;42.63;;
76357;SDS011;65185;21.060;105.826;2023-11-19T02:08:45;73.47;;;41.47;;
76357;SDS011;65185;21.060;105.826;2023-11-19T02:11:12;69.82;;;40.60;;
76357;SDS011;65185;21.060;105.826;2023-11-19T02:13:39;65.43;;;39.22;;
76357;SDS011;65185;21.060;105.826;2023-11-19T02:16:07;68.15;;;38.03;;
76357;SDS011;65185;21.060;105.826;2023-11-19T02:18:36;60.75;;;37.78;;
76357;SDS011;65185;21.060;105.826;2023-11-19T02:21:03;58.20;;;36.60;;
76357;SDS011;65185;21.060;105.826;2023-11-19T02:23:30;64.85;;;38.45;;
76357;SDS011;65185;21.060;105.826;2023-11-19T02:28:24;69.70;;;41.45;;
76357;SDS011;65185;21.060;105.826;2023-11-19T02:30:52;67.38;;;39.92;;
76357;SDS011;65185;21.060;105.826;2023-11-19T02:33:21;79.78;;;46.30;;
76357;SDS011;65185;21.060;105.826;2023-11-19T02:35:49;80.45;;;46.50;;
76357;SDS011;65185;21.060;105.826;2023-11-19T02:38:16;75.53;;;44.53;;
76357;SDS011;65185;21.060;105.826;2023-11-19T02:40:43;63.40;;;37.63;;
76357;SDS011;65185;21.060;105.826;2023-11-19T02:43:09;68.80;;;41.58;;
76357;SDS011;65185;21.060;105.826;2023-11-19T02:45:36;66.60;;;38.80;;
76357;SDS011;65185;21.060;105.826;2023-11-19T02:48:03;71.10;;;41.47;;
76357;SDS011;65185;21.060;105.826;2023-11-19T02:50:31;61.05;;;35.25;;
76357;SDS011;65185;21.060;105.826;2023-11-19T02:52:58;70.82;;;38.83;;
76357;SDS011;65185;21.060;105.826;2023-11-19T02:55:26;54.92;;;32.97;;
76357;SDS011;65185;21.060;105.826;2023-11-19T02:57:56;52.72;;;31.55;;
76357;SDS011;65185;21.060;105.826;2023-11-19T03:00:24;56.22;;;31.83;;
76357;SDS011;65185;21.060;105.826;2023-11-19T03:03:03;59.30;;;31.20;;
76357;SDS011;65185;21.060;105.826;2023-11-19T03:05:46;49.90;;;29.05;;
76357;SDS011;65185;21.060;105.826;2023-11-19T03:08:13;55.45;;;32.63;;
76357;SDS011;65185;21.060;105.826;2023-11-19T03:10:43;56.30;;;32.15;;
76357;SDS011;65185;21.060;105.826;2023-11-19T03:13:11;49.90;;;28.90;;
76357;SDS011;65185;21.060;105.826;2023-11-19T03:15:42;44.63;;;24.90;;
76357;SDS011;65185;21.060;105.826;2023-11-19T03:18:09;39.83;;;23.13;;
76357;SDS011;65185;21.060;105.826;2023-11-19T03:20:36;35.97;;;20.40;;
76357;SDS011;65185;21.060;105.826;2023-11-19T03:23:03;36.50;;;19.80;;
76357;SDS011;65185;21.060;105.826;2023-11-19T03:25:31;41.33;;;20.38;;
76357;SDS011;65185;21.060;105.826;2023-11-19T03:28:02;41.03;;;20.77;;
76357;SDS011;65185;21.060;105.826;2023-11-19T03:30:30;42.10;;;19.33;;
76357;SDS011;65185;21.060;105.826;2023-11-19T03:32:58;36.58;;;20.60;;
76357;SDS011;65185;21.060;105.826;2023-11-19T03:35:28;37.85;;;20.42;;
76357;SDS011;65185;21.060;105.826;2023-11-19T03:37:56;45.25;;;22.95;;
76357;SDS011;65185;21.060;105.826;2023-11-19T03:40:23;34.58;;;20.63;;
76357;SDS011;65185;21.060;105.826;2023-11-19T03:42:50;39.40;;;21.00;;
76357;SDS011;65185;21.060;105.826;2023-11-19T03:45:17;43.78;;;21.92;;
76357;SDS011;65185;21.060;105.826;2023-11-19T03:47:44;40.95;;;22.65;;
76357;SDS011;65185;21.060;105.826;2023-11-19T03:50:11;38.85;;;21.02;;
76357;SDS011;65185;21.060;105.826;2023-11-19T03:52:38;40.72;;;21.63;;
76357;SDS011;65185;21.060;105.826;2023-11-19T03:55:05;33.15;;;20.65;;
76357;SDS011;65185;21.060;105.826;2023-11-19T03:57:34;43.95;;;23.75;;
76357;SDS011;65185;21.060;105.826;2023-11-19T04:00:02;44.55;;;24.92;;
76357;SDS011;65185;21.060;105.826;2023-11-19T04:02:34;38.95;;;21.50;;
76357;SDS011;65185;21.060;105.826;2023-11-19T04:05:01;37.38;;;21.23;;
76357;SDS011;65185;21.060;105.826;2023-11-19T04:07:30;44.35;;;22.88;;
76357;SDS011;65185;21.060;105.826;2023-11-19T04:09:57;39.35;;;22.42;;
76357;SDS011;65185;21.060;105.826;2023-11-19T04:12:24;44.67;;;23.95;;
76357;SDS011;65185;21.060;105.826;2023-11-19T04:14:51;45.45;;;24.15;;
76357;SDS011;65185;21.060;105.826;2023-11-19T04:17:18;37.33;;;21.05;;
76357;SDS011;65185;21.060;105.826;2023-11-19T04:19:45;50.25;;;23.88;;
76357;SDS011;65185;21.060;105.826;2023-11-19T04:22:12;37.70;;;22.80;;
76357;SDS011;65185;21.060;105.826;2023-11-19T04:24:39;37.38;;;21.88;;
76357;SDS011;65185;21.060;105.826;2023-11-19T04:27:06;38.20;;;20.83;;
76357;SDS011;65185;21.060;105.826;2023-11-19T04:29:33;39.55;;;21.58;;
76357;SDS011;65185;21.060;105.826;2023-11-19T04:32:00;37.28;;;21.65;;
76357;SDS011;65185;21.060;105.826;2023-11-19T04:34:27;42.30;;;23.27;;
76357;SDS011;65185;21.060;105.826;2023-11-19T04:36:54;46.78;;;23.33;;
76357;SDS011;65185;21.060;105.826;2023-11-19T04:39:21;37.30;;;22.20;;
76357;SDS011;65185;21.060;105.826;2023-11-19T04:41:48;39.05;;;22.75;;
76357;SDS011;65185;21.060;105.826;2023-11-19T04:44:17;42.00;;;23.30;;
76357;SDS011;65185;21.060;105.826;2023-11-19T04:46:44;39.97;;;23.67;;
76357;SDS011;65185;21.060;105.826;2023-11-19T04:49:11;42.25;;;22.50;;
76357;SDS011;65185;21.060;105.826;2023-11-19T04:51:44;35.50;;;22.13;;
76357;SDS011;65185;21.060;105.826;2023-11-19T04:54:14;37.05;;;22.65;;
76357;SDS011;65185;21.060;105.826;2023-11-19T04:56:41;35.80;;;21.13;;
76357;SDS011;65185;21.060;105.826;2023-11-19T04:59:12;37.50;;;20.90;;
76357;SDS011;65185;21.060;105.826;2023-11-19T05:01:46;31.73;;;19.50;;
76357;SDS011;65185;21.060;105.826;2023-11-19T05:04:13;41.10;;;23.00;;
76357;SDS011;65185;21.060;105.826;2023-11-19T05:06:40;40.45;;;20.30;;
76357;SDS011;65185;21.060;105.826;2023-11-19T05:09:07;40.25;;;20.75;;
76357;SDS011;65185;21.060;105.826;2023-11-19T05:11:34;39.75;;;21.02;;
76357;SDS011;65185;21.060;105.826;2023-11-19T05:14:04;42.92;;;20.42;;
76357;SDS011;65185;21.060;105.826;2023-11-19T05:16:31;33.95;;;17.70;;
76357;SDS011;65185;21.060;105.826;2023-11-19T05:18:58;32.17;;;18.10;;
76357;SDS011;65185;21.060;105.826;2023-11-19T05:21:25;32.88;;;16.52;;
76357;SDS011;65185;21.060;105.826;2023-11-19T05:23:52;27.00;;;16.35;;
76357;SDS011;65185;21.060;105.826;2023-11-19T05:26:20;29.77;;;15.82;;
76357;SDS011;65185;21.060;105.826;2023-11-19T05:28:48;31.38;;;15.73;;
76357;SDS011;65185;21.060;105.826;2023-11-19T05:31:16;33.60;;;16.77;;
76357;SDS011;65185;21.060;105.826;2023-11-19T05:33:44;27.45;;;15.23;;
76357;SDS011;65185;21.060;105.826;2023-11-19T05:36:11;26.42;;;14.70;;
76357;SDS011;65185;21.060;105.826;2023-11-19T05:38:39;30.42;;;14.50;;
76357;SDS011;65185;21.060;105.826;2023-11-19T05:41:06;32.05;;;15.57;;
76357;SDS011;65185;21.060;105.826;2023-11-19T05:43:37;30.17;;;14.60;;
76357;SDS011;65185;21.060;105.826;2023-11-19T05:46:06;24.33;;;14.13;;
76357;SDS011;65185;21.060;105.826;2023-11-19T05:48:34;33.13;;;14.57;;
76357;SDS011;65185;21.060;105.826;2023-11-19T05:51:01;26.60;;;13.43;;
76357;SDS011;65185;21.060;105.826;2023-11-19T05:53:28;21.85;;;12.40;;
76357;SDS011;65185;21.060;105.826;2023-11-19T05:55:57;25.95;;;12.75;;
76357;SDS011;65185;21.060;105.826;2023-11-19T05:58:27;30.08;;;13.48;;
76357;SDS011;65185;21.060;105.826;2023-11-19T06:00:54;23.83;;;13.73;;
76357;SDS011;65185;21.060;105.826;2023-11-19T06:03:22;28.73;;;14.70;;
76357;SDS011;65185;21.060;105.826;2023-11-19T06:05:49;28.13;;;13.18;;
76357;SDS011;65185;21.060;105.826;2023-11-19T06:08:16;23.00;;;13.13;;
76357;SDS011;65185;21.060;105.826;2023-11-19T06:10:43;25.35;;;12.85;;
76357;SDS011;65185;21.060;105.826;2023-11-19T06:13:16;24.13;;;11.30;;
76357;SDS011;65185;21.060;105.826;2023-11-19T06:15:42;22.75;;;12.00;;
76357;SDS011;65185;21.060;105.826;2023-11-19T06:18:09;23.23;;;11.98;;
76357;SDS011;65185;21.060;105.826;2023-11-19T06:20:40;26.15;;;12.57;;
76357;SDS011;65185;21.060;105.826;2023-11-19T06:23:07;24.55;;;11.85;;
76357;SDS011;65185;21.060;105.826;2023-11-19T06:25:34;22.65;;;11.88;;
76357;SDS011;65185;21.060;105.826;2023-11-19T06:28:01;23.13;;;11.40;;
76357;SDS011;65185;21.060;105.826;2023-11-19T06:30:31;22.33;;;11.05;;
76357;SDS011;65185;21.060;105.826;2023-11-19T06:32:58;20.75;;;11.63;;
76357;SDS011;65185;21.060;105.826;2023-11-19T06:35:25;19.63;;;11.13;;
76357;SDS011;65185;21.060;105.826;2023-11-19T06:37:52;25.20;;;11.70;;
76357;SDS011;65185;21.060;105.826;2023-11-19T06:40:19;23.00;;;12.93;;
76357;SDS011;65185;21.060;105.826;2023-11-19T06:42:46;25.45;;;13.52;;
76357;SDS011;65185;21.060;105.826;2023-11-19T06:45:12;24.45;;;11.73;;
76357;SDS011;65185;21.060;105.826;2023-11-19T06:47:40;26.58;;;13.80;;
76357;SDS011;65185;21.060;105.826;2023-11-19T06:50:07;29.05;;;13.57;;
76357;SDS011;65185;21.060;105.826;2023-11-19T06:52:34;23.63;;;11.75;;
76357;SDS011;65185;21.060;105.826;2023-11-19T06:55:02;21.80;;;11.65;;
76357;SDS011;65185;21.060;105.826;2023-11-19T06:57:30;22.80;;;11.23;;
76357;SDS011;65185;21.060;105.826;2023-11-19T06:59:57;19.52;;;11.70;;
76357;SDS011;65185;21.060;105.826;2023-11-19T07:02:24;25.40;;;12.18;;
76357;SDS011;65185;21.060;105.826;2023-11-19T07:04:52;22.83;;;11.80;;
76357;SDS011;65185;21.060;105.826;2023-11-19T07:07:20;21.27;;;12.25;;
76357;SDS011;65185;21.060;105.826;2023-11-19T07:09:46;22.20;;;11.90;;
76357;SDS011;65185;21.060;105.826;2023-11-19T07:12:13;26.10;;;13.10;;
76357;SDS011;65185;21.060;105.826;2023-11-19T07:14:40;25.63;;;12.98;;
76357;SDS011;65185;21.060;105.826;2023-11-19T07:17:07;23.10;;;13.18;;
76357;SDS011;65185;21.060;105.826;2023-11-19T07:19:35;30.42;;;14.77;;
76357;SDS011;65185;21.060;105.826;2023-11-19T07:22:03;26.67;;;15.07;;
76357;SDS011;65185;21.060;105.826;2023-11-19T07:24:31;29.75;;;16.80;;
76357;SDS011;65185;21.060;105.826;2023-11-19T07:26:58;30.38;;;14.75;;
76357;SDS011;65185;21.060;105.826;2023-11-19T07:29:25;25.17;;;14.07;;
76357;SDS011;65185;21.060;105.826;2023-11-19T07:31:52;29.65;;;14.85;;
76357;SDS011;65185;21.060;105.826;2023-11-19T07:34:19;26.52;;;14.93;;
76357;SDS011;65185;21.060;105.826;2023-11-19T07:36:48;27.15;;;14.63;;
76357;SDS011;65185;21.060;105.826;2023-11-19T07:39:15;29.80;;;14.75;;
76357;SDS011;65185;21.060;105.826;2023-11-19T07:41:43;27.15;;;14.95;;
76357;SDS011;65185;21.060;105.826;2023-11-19T07:44:10;26.13;;;15.10;;
76357;SDS011;65185;21.060;105.826;2023-11-19T07:46:37;26.90;;;15.00;;
76357;SDS011;65185;21.060;105.826;2023-11-19T07:49:04;27.58;;;15.60;;
76357;SDS011;65185;21.060;105.826;2023-11-19T07:51:31;23.67;;;14.23;;
76357;SDS011;65185;21.060;105.826;2023-11-19T07:53:58;28.92;;;14.60;;
76357;SDS011;65185;21.060;105.826;2023-11-19T07:56:26;24.40;;;14.20;;
76357;SDS011;65185;21.060;105.826;2023-11-19T07:58:53;33.55;;;14.88;;
76357;SDS011;65185;21.060;105.826;2023-11-19T08:01:20;23.98;;;13.20;;
76357;SDS011;65185;21.060;105.826;2023-11-19T08:03:49;26.58;;;13.20;;
76357;SDS011;65185;21.060;105.826;2023-11-19T08:06:16;25.55;;;13.88;;
76357;SDS011;65185;21.060;105.826;2023-11-19T08:08:43;30.15;;;13.38;;
76357;SDS011;65185;21.060;105.826;2023-11-19T08:11:10;24.90;;;13.88;;
76357;SDS011;65185;21.060;105.826;2023-11-19T08:13:38;26.20;;;13.70;;
76357;SDS011;65185;21.060;105.826;2023-11-19T08:16:06;24.42;;;13.32;;
76357;SDS011;65185;21.060;105.826;2023-11-19T08:18:35;25.85;;;14.20;;
76357;SDS011;65185;21.060;105.826;2023-11-19T08:21:02;25.45;;;13.82;;
76357;SDS011;65185;21.060;105.826;2023-11-19T08:23:30;26.58;;;13.95;;
76357;SDS011;65185;21.060;105.826;2023-11-19T08:25:57;25.25;;;14.35;;
76357;SDS011;65185;21.060;105.826;2023-11-19T08:28:25;25.85;;;14.55;;
76357;SDS011;65185;21.060;105.826;2023-11-19T08:30:53;24.45;;;13.85;;
76357;SDS011;65185;21.060;105.826;2023-11-19T08:33:20;25.38;;;13.38;;
76357;SDS011;65185;21.060;105.826;2023-11-19T08:35:48;24.45;;;13.77;;
76357;SDS011;65185;21.060;105.826;2023-11-19T08:38:15;26.63;;;14.10;;
76357;SDS011;65185;21.060;105.826;2023-11-19T08:40:43;24.25;;;12.80;;
76357;SDS011;65185;21.060;105.826;2023-11-19T08:43:10;27.55;;;14.07;;
76357;SDS011;65185;21.060;105.826;2023-11-19T08:45:37;22.75;;;13.05;;
76357;SDS011;65185;21.060;105.826;2023-11-19T08:48:04;25.08;;;13.85;;
76357;SDS011;65185;21.060;105.826;2023-11-19T08:50:31;21.67;;;13.18;;
76357;SDS011;65185;21.060;105.826;2023-11-19T08:52:59;25.17;;;12.60;;
76357;SDS011;65185;21.060;105.826;2023-11-19T08:55:26;24.27;;;12.93;;
76357;SDS011;65185;21.060;105.826;2023-11-19T08:57:53;22.48;;;12.40;;
76357;SDS011;65185;21.060;105.826;2023-11-19T09:00:20;22.50;;;12.77;;
76357;SDS011;65185;21.060;105.826;2023-11-19T09:02:48;26.13;;;13.10;;
76357;SDS011;65185;21.060;105.826;2023-11-19T09:05:18;22.73;;;13.02;;
76357;SDS011;65185;21.060;105.826;2023-11-19T09:07:46;25.88;;;14.07;;
76357;SDS011;65185;21.060;105.826;2023-11-19T09:10:14;23.92;;;13.55;;
76357;SDS011;65185;21.060;105.826;2023-11-19T09:12:42;25.75;;;14.15;;
76357;SDS011;65185;21.060;105.826;2023-11-19T09:15:09;24.42;;;13.73;;
76357;SDS011;65185;21.060;105.826;2023-11-19T09:17:37;24.35;;;13.98;;
76357;SDS011;65185;21.060;105.826;2023-11-19T09:20:08;24.70;;;13.65;;
76357;SDS011;65185;21.060;105.826;2023-11-19T09:22:39;22.33;;;13.68;;
76357;SDS011;65185;21.060;105.826;2023-11-19T09:25:09;23.27;;;13.98;;
76357;SDS011;65185;21.060;105.826;2023-11-19T09:27:43;24.92;;;13.40;;
76357;SDS011;65185;21.060;105.826;2023-11-19T09:30:11;24.77;;;13.60;;
76357;SDS011;65185;21.060;105.826;2023-11-19T09:32:38;23.80;;;14.15;;
76357;SDS011;65185;21.060;105.826;2023-11-19T09:35:05;23.85;;;13.77;;
76357;SDS011;65185;21.060;105.826;2023-11-19T09:37:33;24.10;;;13.18;;
76357;SDS011;65185;21.060;105.826;2023-11-19T09:40:00;22.52;;;13.20;;
76357;SDS011;65185;21.060;105.826;2023-11-19T09:42:27;25.55;;;14.05;;
76357;SDS011;65185;21.060;105.826;2023-11-19T09:44:55;32.90;;;19.40;;
76357;SDS011;65185;21.060;105.826;2023-11-19T09:47:25;34.78;;;21.83;;
76357;SDS011;65185;21.060;105.826;2023-11-19T09:49:53;36.30;;;23.00;;
76357;SDS011;65185;21.060;105.826;2023-11-19T09:52:20;36.33;;;22.52;;
76357;SDS011;65185;21.060;105.826;2023-11-19T09:54:47;32.40;;;20.52;;
76357;SDS011;65185;21.060;105.826;2023-11-19T09:57:14;31.85;;;19.52;;
76357;SDS011;65185;21.060;105.826;2023-11-19T09:59:48;28.90;;;17.42;;
76357;SDS011;65185;21.060;105.826;2023-11-19T10:02:17;27.98;;;17.10;;
76357;SDS011;65185;21.060;105.826;2023-11-19T10:04:45;34.10;;;19.05;;
76357;SDS011;65185;21.060;105.826;2023-11-19T10:07:14;29.52;;;17.73;;
76357;SDS011;65185;21.060;105.826;2023-11-19T10:09:41;27.02;;;17.20;;
76357;SDS011;65185;21.060;105.826;2023-11-19T10:12:09;29.08;;;16.83;;
76357;SDS011;65185;21.060;105.826;2023-11-19T10:14:36;24.40;;;15.63;;
76357;SDS011;65185;21.060;105.826;2023-11-19T10:17:07;29.70;;;16.45;;
76357;SDS011;65185;21.060;105.826;2023-11-19T10:19:36;27.23;;;16.70;;
76357;SDS011;65185;21.060;105.826;2023-11-19T10:22:07;36.25;;;19.73;;
76357;SDS011;65185;21.060;105.826;2023-11-19T10:24:34;29.30;;;17.23;;
76357;SDS011;65185;21.060;105.826;2023-11-19T10:27:06;28.55;;;17.52;;
76357;SDS011;65185;21.060;105.826;2023-11-19T10:29:37;29.48;;;17.27;;
76357;SDS011;65185;21.060;105.826;2023-11-19T10:32:04;33.08;;;19.10;;
76357;SDS011;65185;21.060;105.826;2023-11-19T10:34:31;31.65;;;18.23;;
76357;SDS011;65185;21.060;105.826;2023-11-19T10:36:59;28.58;;;17.83;;
76357;SDS011;65185;21.060;105.826;2023-11-19T10:39:33;29.67;;;17.13;;
76357;SDS011;65185;21.060;105.826;2023-11-19T10:42:22;31.58;;;17.27;;
76357;SDS011;65185;21.060;105.826;2023-11-19T10:44:49;30.77;;;17.08;;
76357;SDS011;65185;21.060;105.826;2023-11-19T10:47:20;29.48;;;16.75;;
76357;SDS011;65185;21.060;105.826;2023-11-19T10:49:49;27.50;;;15.93;;
76357;SDS011;65185;21.060;105.826;2023-11-19T10:52:19;28.52;;;16.50;;
76357;SDS011;65185;21.060;105.826;2023-11-19T10:54:50;28.83;;;16.65;;
76357;SDS011;65185;21.060;105.826;2023-11-19T10:57:22;28.63;;;17.08;;
76357;SDS011;65185;21.060;105.826;2023-11-19T10:59:55;31.63;;;18.65;;
76357;SDS011;65185;21.060;105.826;2023-11-19T11:02:29;29.50;;;18.60;;
76357;SDS011;65185;21.060;105.826;2023-11-19T11:05:00;33.88;;;19.65;;
76357;SDS011;65185;21.060;105.826;2023-11-19T11:07:28;34.88;;;20.35;;
76357;SDS011;65185;21.060;105.826;2023-11-19T11:09:58;34.33;;;20.30;;
76357;SDS011;65185;21.060;105.826;2023-11-19T11:12:27;35.92;;;19.75;;
76357;SDS011;65185;21.060;105.826;2023-11-19T11:14:57;34.88;;;19.98;;
76357;SDS011;65185;21.060;105.826;2023-11-19T11:17:26;35.72;;;20.58;;
76357;SDS011;65185;21.060;105.826;2023-11-19T11:19:57;36.67;;;20.25;;
76357;SDS011;65185;21.060;105.826;2023-11-19T11:22:25;35.20;;;20.77;;
76357;SDS011;65185;21.060;105.826;2023-11-19T11:28:10;36.67;;;21.75;;
76357;SDS011;65185;21.060;105.826;2023-11-19T11:31:08;37.55;;;22.25;;
76357;SDS011;65185;21.060;105.826;2023-11-19T11:33:59;40.75;;;22.05;;
76357;SDS011;65185;21.060;105.826;2023-11-19T11:36:33;40.67;;;21.65;;
76357;SDS011;65185;21.060;105.826;2023-11-19T11:39:11;36.00;;;22.90;;
76357;SDS011;65185;21.060;105.826;2023-11-19T11:41:39;41.20;;;23.63;;
76357;SDS011;65185;21.060;105.826;2023-11-19T11:44:06;43.22;;;24.73;;
76357;SDS011;65185;21.060;105.826;2023-11-19T11:49:05;40.60;;;24.80;;
76357;SDS011;65185;21.060;105.826;2023-11-19T12:02:09;43.75;;;27.23;;
76357;SDS011;65185;21.060;105.826;2023-11-19T12:04:39;42.75;;;28.08;;
76357;SDS011;65185;21.060;105.826;2023-11-19T12:07:17;47.42;;;28.55;;
76357;SDS011;65185;21.060;105.826;2023-11-19T12:09:47;44.50;;;27.80;;
76357;SDS011;65185;21.060;105.826;2023-11-19T12:12:38;45.80;;;29.48;;
76357;SDS011;65185;21.060;105.826;2023-11-19T12:15:08;44.00;;;27.60;;
76357;SDS011;65185;21.060;105.826;2023-11-19T12:17:36;46.70;;;28.60;;
76357;SDS011;65185;21.060;105.826;2023-11-19T12:20:18;46.53;;;28.88;;
76357;SDS011;65185;21.060;105.826;2023-11-19T12:22:50;49.67;;;30.27;;
76357;SDS011;65185;21.060;105.826;2023-11-19T12:25:18;44.58;;;29.15;;
76357;SDS011;65185;21.060;105.826;2023-11-19T12:30:21;45.40;;;28.98;;
76357;SDS011;65185;21.060;105.826;2023-11-19T12:32:50;47.95;;;29.05;;
76357;SDS011;65185;21.060;105.826;2023-11-19T12:37:46;47.55;;;28.45;;
76357;SDS011;65185;21.060;105.826;2023-11-19T12:42:47;47.60;;;28.40;;
76357;SDS011;65185;21.060;105.826;2023-11-19T12:45:18;49.75;;;30.05;;
76357;SDS011;65185;21.060;105.826;2023-11-19T12:47:47;44.67;;;29.17;;
76357;SDS011;65185;21.060;105.826;2023-11-19T12:50:16;45.67;;;30.58;;
76357;SDS011;65185;21.060;105.826;2023-11-19T12:52:57;50.30;;;30.95;;
76357;SDS011;65185;21.060;105.826;2023-11-19T12:55:31;52.63;;;31.08;;
76357;SDS011;65185;21.060;105.826;2023-11-19T12:57:58;46.50;;;29.95;;
76357;SDS011;65185;21.060;105.826;2023-11-19T13:00:26;47.50;;;29.63;;
76357;SDS011;65185;21.060;105.826;2023-11-19T13:02:55;48.13;;;31.20;;
76357;SDS011;65185;21.060;105.826;2023-11-19T13:05:31;47.83;;;29.85;;
76357;SDS011;65185;21.060;105.826;2023-11-19T13:08:03;52.28;;;31.33;;
76357;SDS011;65185;21.060;105.826;2023-11-19T13:13:06;48.50;;;31.52;;
76357;SDS011;65185;21.060;105.826;2023-11-19T13:15:35;52.80;;;32.80;;
76357;SDS011;65185;21.060;105.826;2023-11-19T13:18:02;54.25;;;33.10;;
76357;SDS011;65185;21.060;105.826;2023-11-19T13:20:29;54.10;;;33.40;;
76357;SDS011;65185;21.060;105.826;2023-11-19T13:22:58;56.42;;;35.38;;
76357;SDS011;65185;21.060;105.826;2023-11-19T13:25:27;57.20;;;35.78;;
76357;SDS011;65185;21.060;105.826;2023-11-19T13:27:54;54.63;;;34.55;;
76357;SDS011;65185;21.060;105.826;2023-11-19T13:30:22;97.85;;;54.90;;
76357;SDS011;65185;21.060;105.826;2023-11-19T13:32:52;133.10;;;75.97;;
76357;SDS011;65185;21.060;105.826;2023-11-19T13:35:22;109.63;;;67.57;;
76357;SDS011;65185;21.060;105.826;2023-11-19T13:37:50;122.90;;;77.45;;
76357;SDS011;65185;21.060;105.826;2023-11-19T13:40:17;121.35;;;71.53;;
76357;SDS011;65185;21.060;105.826;2023-11-19T13:42:50;108.15;;;62.45;;
76357;SDS011;65185;21.060;105.826;2023-11-19T13:45:17;98.22;;;56.85;;
76357;SDS011;65185;21.060;105.826;2023-11-19T13:47:46;96.88;;;51.33;;
76357;SDS011;65185;21.060;105.826;2023-11-19T13:50:15;91.13;;;46.80;;
76357;SDS011;65185;21.060;105.826;2023-11-19T13:52:49;91.57;;;48.03;;
76357;SDS011;65185;21.060;105.826;2023-11-19T13:55:17;95.78;;;46.83;;
76357;SDS011;65185;21.060;105.826;2023-11-19T13:57:44;93.50;;;49.42;;
76357;SDS011;65185;21.060;105.826;2023-11-19T14:00:12;87.47;;;46.83;;
76357;SDS011;65185;21.060;105.826;2023-11-19T14:02:45;85.45;;;45.17;;
76357;SDS011;65185;21.060;105.826;2023-11-19T14:05:13;83.25;;;45.33;;
76357;SDS011;65185;21.060;105.826;2023-11-19T14:07:43;91.30;;;47.75;;
76357;SDS011;65185;21.060;105.826;2023-11-19T14:10:16;89.10;;;43.95;;
76357;SDS011;65185;21.060;105.826;2023-11-19T14:12:44;89.18;;;46.05;;
76357;SDS011;65185;21.060;105.826;2023-11-19T14:15:15;91.97;;;50.10;;
76357;SDS011;65185;21.060;105.826;2023-11-19T14:17:44;82.65;;;44.08;;
76357;SDS011;65185;21.060;105.826;2023-11-19T14:20:12;78.95;;;41.20;;
76357;SDS011;65185;21.060;105.826;2023-11-19T14:22:45;82.80;;;43.58;;
76357;SDS011;65185;21.060;105.826;2023-11-19T14:25:17;76.82;;;39.38;;
76357;SDS011;65185;21.060;105.826;2023-11-19T14:27:46;70.35;;;37.63;;
76357;SDS011;65185;21.060;105.826;2023-11-19T14:30:16;81.80;;;41.92;;
76357;SDS011;65185;21.060;105.826;2023-11-19T14:32:43;82.15;;;41.42;;